Time;durP1;ratioP1;P1;durP2;ratioP2;P2;SDS_P1;SDS_P2;PMS_P1;PMS_P2;Temp;Humidity;BMP_temperature;BMP_pressure;BME280_temperature;BME280_humidity;BME280_pressure;Samples;Min_cycle;Max_cycle;Signal;HPM_P1;HPM_P2
2022/09/12 00:02:24;;;;;;;8.95;7.55;;;15.70;99.90;;;;;;5051912;28;20041;-70
2022/09/12 00:04:50;;;;;;;10.38;7.90;;;15.80;99.90;;;;;;5053245;28;20045;-70
2022/09/12 00:07:15;;;;;;;9.30;7.85;;;15.80;99.90;;;;;;5052982;28;20044;-70
2022/09/12 00:09:41;;;;;;;10.02;8.00;;;15.70;99.90;;;;;;5052571;28;20039;-69
2022/09/12 00:12:07;;;;;;;9.15;7.55;;;15.80;99.90;;;;;;5051978;28;20037;-70
2022/09/12 00:14:32;;;;;;;9.18;7.07;;;15.60;99.90;;;;;;5053205;28;20097;-70
2022/09/12 00:16:59;;;;;;;8.45;7.65;;;15.70;99.90;;;;;;5053103;28;20029;-70
2022/09/12 00:19:26;;;;;;;9.57;7.50;;;15.70;99.90;;;;;;5052632;28;20041;-70
2022/09/12 00:21:51;;;;;;;8.95;8.13;;;15.60;99.90;;;;;;5052873;28;20388;-69
2022/09/12 00:24:17;;;;;;;8.82;7.63;;;15.60;99.90;;;;;;5052741;28;20047;-70
2022/09/12 00:26:42;;;;;;;8.65;7.75;;;15.50;99.90;;;;;;5052684;28;20043;-70
2022/09/12 00:29:14;;;;;;;13.43;8.98;;;15.50;99.90;;;;;;5052369;28;20125;-70
2022/09/12 00:31:40;;;;;;;8.57;7.78;;;15.60;99.90;;;;;;5052768;28;20457;-69
2022/09/12 00:34:05;;;;;;;9.25;8.23;;;15.50;99.90;;;;;;5051985;28;20108;-70
2022/09/12 00:36:31;;;;;;;8.18;7.35;;;15.20;99.90;;;;;;5052196;28;20438;-70
2022/09/12 00:38:57;;;;;;;11.98;8.43;;;15.30;99.90;;;;;;5052296;28;20083;-70
2022/09/12 00:41:24;;;;;;;9.55;8.55;;;15.10;99.90;;;;;;5052153;28;20067;-70
2022/09/12 00:43:58;;;;;;;10.80;8.32;;;15.20;99.90;;;;;;5052577;28;20041;-70
2022/09/12 00:46:46;;;;;;;9.18;8.05;;;15.00;99.90;;;;;;5052353;28;20548;-70
2022/09/12 00:49:24;;;;;;;12.75;8.63;;;15.10;99.90;;;;;;5052078;28;20037;-70
2022/09/12 00:51:58;;;;;;;10.23;8.52;;;15.00;99.90;;;;;;5052249;28;20398;-69
2022/09/12 00:54:28;;;;;;;9.95;9.02;;;14.90;99.90;;;;;;5052430;28;20045;-70
2022/09/12 00:56:59;;;;;;;16.33;10.50;;;14.90;99.90;;;;;;5052343;28;20108;-69
2022/09/12 00:59:31;;;;;;;12.60;9.80;;;15.00;99.90;;;;;;5051837;28;20047;-69
2022/09/12 01:01:57;;;;;;;12.13;9.85;;;14.80;99.90;;;;;;5052012;28;20067;-69
2022/09/12 01:04:24;;;;;;;11.77;10.48;;;14.80;99.90;;;;;;5052225;28;20036;-69
2022/09/12 01:06:50;;;;;;;12.38;11.10;;;14.90;99.90;;;;;;5052155;28;20116;-69
2022/09/12 01:09:19;;;;;;;12.48;11.07;;;14.80;99.90;;;;;;5051638;28;20033;-70
2022/09/12 01:11:47;;;;;;;14.07;11.65;;;14.70;99.90;;;;;;5051890;28;20112;-69
2022/09/12 01:14:14;;;;;;;12.93;10.85;;;14.80;99.90;;;;;;5051891;28;20036;-69
2022/09/12 01:16:40;;;;;;;13.45;10.50;;;14.70;99.90;;;;;;5051837;28;20067;-70
2022/09/12 01:19:44;;;;;;;14.25;12.55;;;14.70;99.90;;;;;;5051772;28;20511;-69
2022/09/12 01:22:27;;;;;;;14.23;12.73;;;14.80;99.90;;;;;;5051808;28;20040;-70
2022/09/12 01:25:35;;;;;;;15.85;11.68;;;14.60;99.90;;;;;;5051787;28;20120;-70
2022/09/12 01:28:32;;;;;;;13.85;12.27;;;14.60;99.90;;;;;;5051664;28;20048;-69
2022/09/12 01:31:04;;;;;;;15.65;14.05;;;14.60;99.90;;;;;;5051308;28;20125;-69
2022/09/12 01:33:45;;;;;;;15.15;12.85;;;14.70;99.90;;;;;;5051831;28;20095;-69
2022/09/12 01:36:33;;;;;;;15.52;12.88;;;14.60;99.90;;;;;;5051845;28;20041;-69
2022/09/12 01:39:05;;;;;;;13.98;12.65;;;14.70;99.90;;;;;;5051653;28;20075;-70
2022/09/12 01:41:47;;;;;;;16.13;13.73;;;14.50;99.90;;;;;;5051303;28;20106;-70
2022/09/12 01:44:16;;;;;;;16.52;14.65;;;14.50;99.90;;;;;;5051742;28;20045;-70
2022/09/12 01:47:15;;;;;;;16.08;14.00;;;14.60;99.90;;;;;;5053916;28;20033;-70
2022/09/12 01:50:00;;;;;;;16.25;14.57;;;14.50;99.90;;;;;;5055306;28;20429;-70
2022/09/12 01:52:46;;;;;;;16.98;15.20;;;14.50;99.90;;;;;;5055808;28;20045;-70
2022/09/12 01:55:43;;;;;;;15.88;14.18;;;14.50;99.90;;;;;;5055753;28;20036;-69
2022/09/12 01:58:25;;;;;;;16.58;13.90;;;14.50;99.90;;;;;;5047158;28;20045;-69
2022/09/12 02:01:06;;;;;;;14.90;13.10;;;14.40;99.90;;;;;;5055141;28;20044;-69
2022/09/12 02:03:50;;;;;;;18.02;15.77;;;14.40;99.90;;;;;;5055574;28;20051;-69
2022/09/12 02:06:22;;;;;;;17.65;14.20;;;14.30;99.90;;;;;;5055531;28;20072;-69
2022/09/12 02:08:53;;;;;;;20.33;15.30;;;14.40;99.90;;;;;;5055191;28;20599;-69
2022/09/12 02:11:20;;;;;;;15.88;14.18;;;14.20;99.90;;;;;;5055254;28;20049;-69
2022/09/12 02:13:59;;;;;;;18.42;16.00;;;14.40;99.90;;;;;;5055382;28;20045;-69
2022/09/12 02:16:35;;;;;;;17.05;15.05;;;14.30;99.90;;;;;;5055319;28;20051;-69
2022/09/12 02:19:12;;;;;;;20.15;17.42;;;14.20;99.90;;;;;;5055001;28;20028;-69
2022/09/12 02:21:40;;;;;;;19.65;16.40;;;14.30;99.90;;;;;;5055146;28;20041;-69
2022/09/12 02:24:08;;;;;;;18.80;15.77;;;14.30;99.90;;;;;;5055208;28;20071;-69
2022/09/12 02:26:40;;;;;;;17.85;15.98;;;14.30;99.90;;;;;;5055090;28;20545;-70
2022/09/12 02:29:05;;;;;;;18.27;16.10;;;14.20;99.90;;;;;;5054770;28;20087;-69
2022/09/12 02:31:46;;;;;;;17.48;15.32;;;14.40;99.90;;;;;;5054709;28;20041;-69
2022/09/12 02:34:24;;;;;;;18.98;16.10;;;14.30;99.90;;;;;;5055019;28;20037;-69
2022/09/12 02:36:58;;;;;;;17.73;15.85;;;14.30;99.90;;;;;;5054900;28;20060;-69
2022/09/12 02:39:24;;;;;;;19.20;16.80;;;14.20;99.90;;;;;;5054349;28;20414;-70
2022/09/12 02:41:51;;;;;;;17.45;15.60;;;14.20;99.90;;;;;;5054727;28;20049;-69
2022/09/12 02:44:16;;;;;;;19.85;15.73;;;14.30;99.90;;;;;;5054927;28;20453;-69
2022/09/12 02:46:47;;;;;;;16.05;14.35;;;14.20;99.90;;;;;;5054691;28;20037;-69
2022/09/12 02:49:13;;;;;;;18.48;15.75;;;14.10;99.90;;;;;;5054317;28;20044;-70
2022/09/12 02:51:39;;;;;;;20.15;15.25;;;14.20;99.90;;;;;;5054824;28;20120;-69
2022/09/12 02:54:06;;;;;;;17.40;15.55;;;14.10;99.90;;;;;;5054511;28;20048;-69
2022/09/12 02:56:32;;;;;;;19.40;16.10;;;14.00;99.90;;;;;;5054440;28;20080;-69
2022/09/12 02:59:04;;;;;;;20.58;15.98;;;13.90;99.90;;;;;;5051968;28;20068;-69
2022/09/12 03:01:45;;;;;;;18.67;16.17;;;14.00;99.90;;;;;;5054329;28;20403;-69
2022/09/12 03:04:54;;;;;;;22.73;17.17;;;14.00;99.90;;;;;;5054441;28;20037;-69
2022/09/12 03:07:31;;;;;;;18.60;16.05;;;14.00;99.90;;;;;;5054486;28;20086;-69
2022/09/12 03:10:28;;;;;;;17.73;15.82;;;13.90;99.90;;;;;;5052665;28;20036;-69
2022/09/12 03:13:18;;;;;;;19.90;16.63;;;13.80;99.90;;;;;;5053129;28;20052;-69
2022/09/12 03:16:10;;;;;;;20.55;16.92;;;13.80;99.90;;;;;;5054371;28;20048;-69
2022/09/12 03:19:13;;;;;;;19.83;17.42;;;13.90;99.90;;;;;;5052719;28;20123;-69
2022/09/12 03:21:53;;;;;;;21.13;18.30;;;13.90;99.90;;;;;;5053985;28;20080;-69
2022/09/12 03:24:23;;;;;;;21.23;17.83;;;13.90;99.90;;;;;;5051958;28;20033;-69
2022/09/12 03:27:08;;;;;;;23.52;19.48;;;13.80;99.90;;;;;;5053713;28;20087;-69
2022/09/12 03:29:36;;;;;;;23.75;21.02;;;13.70;99.90;;;;;;5053232;28;20059;-69
2022/09/12 03:32:01;;;;;;;25.00;20.85;;;13.80;99.90;;;;;;5052689;28;20494;-70
2022/09/12 03:34:27;;;;;;;27.50;22.38;;;13.90;99.90;;;;;;5052610;28;20048;-69
2022/09/12 03:36:54;;;;;;;26.48;21.27;;;13.90;99.90;;;;;;5053845;28;20037;-69
2022/09/12 03:39:23;;;;;;;23.77;21.17;;;13.90;99.90;;;;;;5052042;28;20072;-69
2022/09/12 03:41:49;;;;;;;27.73;20.95;;;13.90;99.90;;;;;;5052340;28;20106;-69
2022/09/12 03:44:15;;;;;;;25.95;21.67;;;13.90;99.90;;;;;;5035675;28;20072;-69
2022/09/12 03:46:41;;;;;;;23.05;20.50;;;13.80;99.90;;;;;;5053847;28;20056;-69
2022/09/12 03:49:06;;;;;;;24.73;19.98;;;13.80;99.90;;;;;;5053299;28;20041;-69
2022/09/12 03:51:32;;;;;;;22.65;20.02;;;13.60;99.90;;;;;;5053313;28;20049;-69
2022/09/12 03:53:57;;;;;;;22.98;19.42;;;13.80;99.90;;;;;;5053475;28;20540;-69
2022/09/12 03:56:23;;;;;;;22.35;19.25;;;13.70;99.90;;;;;;5053400;28;20147;-69
2022/09/12 03:58:49;;;;;;;23.30;20.10;;;13.60;99.90;;;;;;5053259;28;20041;-69
2022/09/12 04:01:19;;;;;;;22.10;19.70;;;13.70;99.90;;;;;;5053108;28;20094;-69
2022/09/12 04:03:47;;;;;;;20.77;18.50;;;13.60;99.90;;;;;;5053221;28;20504;-69
2022/09/12 04:06:15;;;;;;;22.40;19.40;;;13.60;99.90;;;;;;5053359;28;20041;-69
2022/09/12 04:08:42;;;;;;;21.95;18.92;;;13.50;99.90;;;;;;5052808;28;20503;-69
2022/09/12 04:11:10;;;;;;;22.92;18.40;;;13.50;99.90;;;;;;5052756;28;20044;-69
2022/09/12 04:13:37;;;;;;;22.75;19.05;;;13.40;99.90;;;;;;5052819;28;20048;-69
2022/09/12 04:16:03;;;;;;;21.77;18.30;;;13.60;99.90;;;;;;5053114;28;20053;-69
2022/09/12 04:18:30;;;;;;;22.27;18.80;;;13.50;99.90;;;;;;5052812;28;20499;-69
2022/09/12 04:20:56;;;;;;;22.73;18.80;;;13.40;99.90;;;;;;5052581;28;20422;-69
2022/09/12 04:23:21;;;;;;;22.67;19.65;;;13.50;99.90;;;;;;5052898;28;20038;-69
2022/09/12 04:25:58;;;;;;;22.08;19.45;;;13.50;99.90;;;;;;5052797;28;20086;-69
2022/09/12 04:28:24;;;;;;;23.15;19.33;;;13.40;99.90;;;;;;5052791;28;20037;-69
2022/09/12 04:30:50;;;;;;;23.75;20.27;;;13.40;99.90;;;;;;5052301;28;20491;-69
2022/09/12 04:33:17;;;;;;;23.98;20.13;;;13.60;99.90;;;;;;5052798;28;20412;-69
2022/09/12 04:35:44;;;;;;;25.77;21.42;;;13.40;99.90;;;;;;5052697;28;20067;-69
2022/09/12 04:38:10;;;;;;;25.60;20.58;;;13.40;99.90;;;;;;5052499;28;20044;-69
2022/09/12 04:40:35;;;;;;;24.58;20.90;;;13.50;99.90;;;;;;5052140;28;20037;-69
2022/09/12 04:43:01;;;;;;;25.77;21.63;;;13.50;99.90;;;;;;5052366;28;20049;-69
2022/09/12 04:45:26;;;;;;;29.23;23.30;;;13.50;99.90;;;;;;5052447;28;20044;-69
2022/09/12 04:47:52;;;;;;;27.67;23.48;;;13.50;99.90;;;;;;5052403;28;20083;-69
2022/09/12 04:50:18;;;;;;;27.25;22.10;;;13.60;99.90;;;;;;5052038;28;20052;-69
2022/09/12 04:52:49;;;;;;;29.40;24.00;;;13.60;99.90;;;;;;5052205;28;20041;-69
2022/09/12 04:55:14;;;;;;;30.10;23.10;;;13.50;99.90;;;;;;5051022;28;20395;-69
2022/09/12 04:57:40;;;;;;;32.47;25.08;;;13.60;99.90;;;;;;5052277;28;20040;-69
2022/09/12 05:00:06;;;;;;;29.85;22.88;;;13.70;99.90;;;;;;5051985;28;20183;-69
2022/09/12 05:02:35;;;;;;;31.75;25.13;;;13.70;99.90;;;;;;5051012;28;20041;-69
2022/09/12 05:05:00;;;;;;;35.03;25.13;;;13.60;99.90;;;;;;5052121;28;20047;-69
2022/09/12 05:07:26;;;;;;;33.75;24.17;;;13.70;99.90;;;;;;5052107;28;20037;-69
2022/09/12 05:09:51;;;;;;;30.83;23.88;;;13.70;99.90;;;;;;5051460;28;20068;-69
2022/09/12 05:12:17;;;;;;;36.67;24.75;;;13.70;99.90;;;;;;5052166;28;20044;-69
2022/09/12 05:14:43;;;;;;;30.98;23.38;;;13.80;99.90;;;;;;5052142;28;20063;-69
2022/09/12 05:17:08;;;;;;;37.70;24.50;;;13.70;99.90;;;;;;5052037;28;20546;-69
2022/09/12 05:19:34;;;;;;;33.00;25.30;;;13.80;99.90;;;;;;5051418;28;20136;-69
2022/09/12 05:21:59;;;;;;;32.03;22.40;;;13.70;99.90;;;;;;5038819;28;20076;-69
2022/09/12 05:24:25;;;;;;;32.92;23.95;;;13.80;99.90;;;;;;5051774;28;20132;-69
2022/09/12 05:26:51;;;;;;;31.98;24.30;;;13.90;99.90;;;;;;5051961;28;20124;-70
2022/09/12 05:29:16;;;;;;;36.22;25.05;;;13.80;99.90;;;;;;5051037;28;20041;-69
2022/09/12 05:31:42;;;;;;;34.88;25.48;;;13.90;99.90;;;;;;5051792;28;20047;-69
2022/09/12 05:34:08;;;;;;;33.70;24.30;;;13.90;99.90;;;;;;5051778;28;20033;-69
2022/09/12 05:36:35;;;;;;;38.22;26.77;;;14.00;99.90;;;;;;5051659;28;20047;-70
2022/09/12 05:39:02;;;;;;;35.65;25.27;;;13.90;99.90;;;;;;5051387;28;20485;-69
2022/09/12 05:41:30;;;;;;;32.90;25.38;;;14.10;99.90;;;;;;5051464;28;20032;-68
2022/09/12 05:43:58;;;;;;;35.25;24.58;;;14.10;99.90;;;;;;5050646;28;20041;-67
2022/09/12 05:46:26;;;;;;;33.83;25.08;;;14.10;99.90;;;;;;5051655;28;20112;-67
2022/09/12 05:48:53;;;;;;;36.63;26.13;;;14.20;99.90;;;;;;5051525;28;20044;-67
2022/09/12 05:51:22;;;;;;;40.63;28.95;;;14.20;99.90;;;;;;5051282;28;20056;-67
2022/09/12 05:53:51;;;;;;;37.60;27.13;;;14.20;99.90;;;;;;5051502;28;20048;-67
2022/09/12 05:56:19;;;;;;;39.17;29.05;;;14.30;99.90;;;;;;5050230;28;20072;-67
2022/09/12 05:58:47;;;;;;;39.38;28.27;;;14.30;99.90;;;;;;5051430;28;20045;-67
2022/09/12 06:01:15;;;;;;;34.42;26.42;;;14.40;99.90;;;;;;5050999;28;20080;-67
2022/09/12 06:03:46;;;;;;;35.13;26.33;;;14.40;99.90;;;;;;5050312;28;20128;-67
2022/09/12 06:06:13;;;;;;;36.13;28.13;;;14.30;99.90;;;;;;5051263;28;20048;-67
2022/09/12 06:08:44;;;;;;;38.60;27.10;;;14.40;99.90;;;;;;5051441;28;20041;-67
2022/09/12 06:11:13;;;;;;;41.45;27.33;;;14.30;99.90;;;;;;5049900;28;20032;-67
2022/09/12 06:13:41;;;;;;;34.85;26.40;;;14.40;99.90;;;;;;5051250;28;20133;-67
2022/09/12 06:16:09;;;;;;;39.00;27.00;;;14.50;99.90;;;;;;5051318;28;20445;-69
2022/09/12 06:18:36;;;;;;;37.70;28.08;;;14.50;99.90;;;;;;5051062;28;20080;-68
2022/09/12 06:21:10;;;;;;;40.95;29.30;;;14.50;99.90;;;;;;5051182;28;20116;-68
2022/09/12 06:23:36;;;;;;;34.83;26.63;;;14.50;99.90;;;;;;5051180;28;20045;-68
2022/09/12 06:26:03;;;;;;;43.13;29.55;;;14.60;99.90;;;;;;5049917;28;20037;-67
2022/09/12 06:28:34;;;;;;;41.83;28.63;;;14.50;99.90;;;;;;5051023;28;20037;-67
2022/09/12 06:31:11;;;;;;;40.58;28.65;;;14.40;99.90;;;;;;5050725;28;20455;-68
2022/09/12 06:33:39;;;;;;;41.25;29.27;;;14.60;99.90;;;;;;5054785;28;20120;-68
2022/09/12 06:36:10;;;;;;;47.00;30.70;;;14.70;99.90;;;;;;5055017;28;20048;-68
2022/09/12 06:38:37;;;;;;;52.78;33.35;;;14.80;99.90;;;;;;5055140;28;20040;-68
2022/09/12 06:41:04;;;;;;;45.72;30.77;;;14.60;99.90;;;;;;5054588;28;20095;-68
2022/09/12 06:43:30;;;;;;;39.80;30.00;;;14.90;99.90;;;;;;5054744;28;20051;-68
2022/09/12 06:45:56;;;;;;;43.03;29.52;;;14.90;99.90;;;;;;5054928;28;20052;-68
2022/09/12 06:48:22;;;;;;;47.88;30.98;;;14.80;99.90;;;;;;5054875;28;20033;-68
2022/09/12 06:51:02;;;;;;;47.53;31.88;;;15.00;99.90;;;;;;5054536;28;20510;-68
2022/09/12 06:53:29;;;;;;;49.55;33.35;;;15.10;99.90;;;;;;5054290;28;20089;-66
2022/09/12 06:56:04;;;;;;;46.53;33.15;;;15.10;99.90;;;;;;5053873;28;20128;-67
2022/09/12 06:58:30;;;;;;;42.78;29.40;;;15.00;99.90;;;;;;5053879;28;20040;-67
2022/09/12 07:01:04;;;;;;;42.85;29.08;;;15.00;99.90;;;;;;5055370;28;20089;-68
2022/09/12 07:03:31;;;;;;;42.33;29.35;;;15.10;99.90;;;;;;5054896;28;20040;-68
2022/09/12 07:06:00;;;;;;;44.97;30.23;;;15.20;99.90;;;;;;5054343;28;20045;-68
2022/09/12 07:08:27;;;;;;;48.10;31.23;;;15.20;99.90;;;;;;5054483;28;20041;-68
2022/09/12 07:10:53;;;;;;;44.50;31.67;;;15.30;99.90;;;;;;5054529;28;20094;-69
2022/09/12 07:13:19;;;;;;;44.70;30.23;;;15.10;99.90;;;;;;5054391;28;20045;-69
2022/09/12 07:15:44;;;;;;;43.03;30.20;;;15.30;99.90;;;;;;5053098;28;20048;-68
2022/09/12 07:18:10;;;;;;;42.58;30.27;;;15.30;99.90;;;;;;5053897;28;20047;-68
2022/09/12 07:20:36;;;;;;;45.85;31.98;;;15.50;99.90;;;;;;5053968;28;20098;-67
2022/09/12 07:23:01;;;;;;;55.33;34.30;;;15.40;99.90;;;;;;5054189;28;20068;-67
2022/09/12 07:25:27;;;;;;;41.47;30.70;;;15.60;99.90;;;;;;5054369;28;20048;-68
2022/09/12 07:27:53;;;;;;;47.05;31.77;;;15.50;99.90;;;;;;5053912;28;20045;-67
2022/09/12 07:30:19;;;;;;;55.22;34.10;;;15.70;99.90;;;;;;5053881;28;20041;-68
2022/09/12 07:32:44;;;;;;;51.95;34.40;;;15.60;99.90;;;;;;5053959;28;20128;-69
2022/09/12 07:35:10;;;;;;;52.20;34.05;;;15.90;99.90;;;;;;5053789;28;20406;-69
2022/09/12 07:37:35;;;;;;;49.25;34.47;;;15.80;99.90;;;;;;5053705;28;20068;-68
2022/09/12 07:40:01;;;;;;;49.53;32.15;;;16.00;99.90;;;;;;5053167;28;20063;-68
2022/09/12 07:42:27;;;;;;;51.72;35.10;;;15.80;99.90;;;;;;5053069;28;20048;-68
2022/09/12 07:44:52;;;;;;;52.85;33.92;;;16.10;99.90;;;;;;5052983;28;20067;-68
2022/09/12 07:47:18;;;;;;;52.05;34.28;;;16.20;99.90;;;;;;5053349;28;20029;-68
2022/09/12 07:49:43;;;;;;;51.72;35.22;;;16.20;99.90;;;;;;5053023;28;20041;-68
2022/09/12 07:52:09;;;;;;;50.20;32.50;;;16.40;99.90;;;;;;5053517;28;20491;-68
2022/09/12 07:54:35;;;;;;;51.53;33.95;;;16.50;99.90;;;;;;5053746;28;20132;-68
2022/09/12 07:57:01;;;;;;;50.88;33.53;;;16.30;99.90;;;;;;5052149;28;20037;-68
2022/09/12 07:59:27;;;;;;;49.22;33.30;;;16.60;99.90;;;;;;5053325;28;20148;-68
2022/09/12 08:01:52;;;;;;;49.67;34.13;;;16.40;99.90;;;;;;5035400;28;20052;-69
2022/09/12 08:04:18;;;;;;;49.10;32.28;;;16.60;99.90;;;;;;5053688;28;20041;-68
2022/09/12 08:06:43;;;;;;;49.80;32.00;;;16.80;99.90;;;;;;5053424;28;20060;-68
2022/09/12 08:09:11;;;;;;;50.03;31.60;;;16.70;99.90;;;;;;5053280;28;20044;-67
2022/09/12 08:11:37;;;;;;;51.63;36.03;;;16.60;99.90;;;;;;5053686;28;20047;-69
2022/09/12 08:14:04;;;;;;;51.10;34.08;;;16.60;99.90;;;;;;5053429;28;20033;-68
2022/09/12 08:16:31;;;;;;;53.95;34.92;;;16.80;99.90;;;;;;5052679;28;20037;-68
2022/09/12 08:18:58;;;;;;;49.70;34.40;;;16.80;99.90;;;;;;5052291;28;20041;-68
2022/09/12 08:21:26;;;;;;;43.58;31.77;;;16.90;99.90;;;;;;5049421;28;20529;-68
2022/09/12 08:23:54;;;;;;;47.42;32.30;;;17.10;99.90;;;;;;5052282;28;20033;-68
2022/09/12 08:26:20;;;;;;;45.80;32.72;;;17.10;99.90;;;;;;5050161;28;20179;-68
2022/09/12 08:28:45;;;;;;;42.25;30.25;;;17.20;99.90;;;;;;5052094;28;20518;-68
2022/09/12 08:31:13;;;;;;;39.58;28.15;;;17.20;99.90;;;;;;5052643;28;20091;-69
2022/09/12 08:33:39;;;;;;;44.65;28.17;;;17.20;99.90;;;;;;5052787;28;20052;-68
2022/09/12 08:36:14;;;;;;;39.20;28.38;;;17.50;99.90;;;;;;5052403;28;20037;-68
2022/09/12 08:38:41;;;;;;;40.33;25.88;;;17.40;99.90;;;;;;5052583;28;20037;-68
2022/09/12 08:41:16;;;;;;;35.08;24.60;;;17.60;99.90;;;;;;5051083;28;20044;-68
2022/09/12 08:44:10;;;;;;;32.47;23.40;;;17.60;99.90;;;;;;5052570;28;20537;-68
2022/09/12 08:46:38;;;;;;;;;;;17.60;99.90;;;;;;5052713;28;20510;-67
2022/09/12 08:49:10;;;;;;;31.75;22.70;;;17.80;99.90;;;;;;5052256;28;19924;-70
2022/09/12 08:51:37;;;;;;;30.95;21.80;;;17.70;99.90;;;;;;5052288;28;20080;-68
2022/09/12 08:54:08;;;;;;;34.20;22.92;;;17.90;99.90;;;;;;5052219;28;20044;-70
2022/09/12 08:56:36;;;;;;;35.03;23.65;;;17.90;99.90;;;;;;5051498;28;20041;-69
2022/09/12 08:59:02;;;;;;;35.25;22.00;;;18.10;99.90;;;;;;5051921;28;20044;-68
2022/09/12 09:01:52;;;;;;;31.92;22.15;;;18.20;99.90;;;;;;5052328;28;20127;-68
2022/09/12 09:04:32;;;;;;;29.75;20.02;;;18.20;99.90;;;;;;5051250;28;20143;-69
2022/09/12 09:07:39;;;;;;;29.33;19.85;;;18.30;99.90;;;;;;5052111;28;20410;-68
2022/09/12 09:10:29;;;;;;;43.00;25.20;;;18.40;99.90;;;;;;5051859;28;20114;-69
2022/09/12 09:14:46;;;;;;;34.45;21.52;;;18.40;99.90;;;;;;5052076;28;20068;-69
2022/09/12 09:16:03;;;;;;;;;;;18.60;99.90;;;;;;5051517;28;20111;-68
2022/09/12 09:18:33;;;;;;;29.95;20.70;;;18.50;99.90;;;;;;5051353;28;19916;-68
2022/09/12 09:21:07;;;;;;;28.27;20.13;;;18.70;99.90;;;;;;5049522;28;20064;-69
2022/09/12 09:23:43;;;;;;;26.55;19.73;;;18.80;99.90;;;;;;5051268;28;20063;-68
2022/09/12 09:26:25;;;;;;;40.97;25.15;;;19.00;99.90;;;;;;5051519;28;20546;-68
2022/09/12 09:29:24;;;;;;;31.17;21.45;;;19.00;99.90;;;;;;5051031;28;20045;-67
2022/09/12 09:31:57;;;;;;;33.25;21.92;;;19.10;99.90;;;;;;5049993;28;20053;-68
2022/09/12 09:34:28;;;;;;;34.05;23.50;;;19.20;99.90;;;;;;5051606;28;20045;-68
2022/09/12 09:37:12;;;;;;;30.67;21.48;;;19.20;99.90;;;;;;5051888;28;20060;-68
2022/09/12 09:40:07;;;;;;;32.63;22.25;;;19.40;99.90;;;;;;5051591;28;20170;-68
2022/09/12 09:42:57;;;;;;;32.78;24.20;;;19.70;99.90;;;;;;5051666;28;20119;-68
2022/09/12 09:45:26;;;;;;;36.72;24.40;;;19.50;99.90;;;;;;5051879;28;20132;-68
2022/09/12 09:48:23;;;;;;;32.70;23.35;;;19.60;99.90;;;;;;5051380;28;20040;-67
2022/09/12 09:50:49;;;;;;;33.83;24.25;;;19.70;99.90;;;;;;5049904;28;20055;-68
2022/09/12 09:53:42;;;;;;;34.75;24.83;;;19.70;99.90;;;;;;5051378;28;20442;-66
2022/09/12 09:56:32;;;;;;;37.47;24.15;;;19.80;99.90;;;;;;5051374;28;20037;-66
2022/09/12 09:59:25;;;;;;;37.28;25.10;;;19.90;99.90;;;;;;5051131;28;20132;-67
2022/09/12 10:02:02;;;;;;;36.25;25.42;;;19.80;99.90;;;;;;5051475;28;20045;-67
2022/09/12 10:04:35;;;;;;;40.78;27.25;;;20.10;99.90;;;;;;5050026;28;20029;-66
2022/09/12 10:07:03;;;;;;;37.30;25.65;;;20.30;99.90;;;;;;5052523;28;20033;-67
2022/09/12 10:09:34;;;;;;;41.40;28.50;;;20.30;99.90;;;;;;5054760;28;20116;-67
2022/09/12 10:12:18;;;;;;;39.70;27.30;;;20.40;99.90;;;;;;5055165;28;20112;-67
2022/09/12 10:14:56;;;;;;;37.22;27.27;;;20.50;99.90;;;;;;5055423;28;20120;-67
2022/09/12 10:17:30;;;;;;;41.78;28.98;;;20.70;99.90;;;;;;5055237;28;20037;-67
2022/09/12 10:19:57;;;;;;;39.15;27.23;;;20.80;99.90;;;;;;5054949;28;20553;-66
2022/09/12 10:22:26;;;;;;;40.28;25.98;;;20.90;99.90;;;;;;5054924;28;20562;-67
2022/09/12 10:24:57;;;;;;;41.42;26.08;;;21.10;99.90;;;;;;5055040;28;20582;-67
2022/09/12 10:27:31;;;;;;;39.08;25.58;;;21.20;99.90;;;;;;5055310;28;20403;-67
2022/09/12 10:30:16;;;;;;;39.78;26.10;;;21.30;99.90;;;;;;5054614;28;20033;-68
2022/09/12 10:32:44;;;;;;;33.15;21.55;;;21.40;99.90;;;;;;5054822;28;20052;-68
2022/09/12 10:35:22;;;;;;;42.00;24.17;;;21.40;99.90;;;;;;5055084;28;20487;-68
2022/09/12 10:37:54;;;;;;;32.17;21.25;;;21.50;99.20;;;;;;5054849;28;20108;-68
2022/09/12 10:40:31;;;;;;;28.67;19.70;;;21.50;98.70;;;;;;5052767;28;20112;-68
2022/09/12 10:43:14;;;;;;;29.88;19.30;;;21.50;98.90;;;;;;5054638;28;20041;-68
2022/09/12 10:45:39;;;;;;;27.65;18.70;;;21.60;98.40;;;;;;5054965;28;20099;-67
2022/09/12 10:48:27;;;;;;;29.52;18.50;;;21.60;98.10;;;;;;5054590;28;20053;-68
2022/09/12 10:50:58;;;;;;;26.15;18.70;;;21.60;97.90;;;;;;5054012;28;20033;-69
2022/09/12 10:53:31;;;;;;;28.42;18.85;;;21.60;98.20;;;;;;5054907;28;20383;-69
2022/09/12 10:56:02;;;;;;;;;;;21.70;97.80;;;;;;5054898;28;20093;-71
2022/09/12 10:58:48;;;;;;;29.50;17.98;;;21.70;96.60;;;;;;5053139;28;19996;-70
2022/09/12 11:01:23;;;;;;;27.65;16.70;;;21.60;96.00;;;;;;5054152;28;20040;-70
2022/09/12 11:04:18;;;;;;;26.38;18.23;;;21.70;96.90;;;;;;5053923;28;20037;-71
2022/09/12 11:07:11;;;;;;;29.35;18.67;;;21.60;97.30;;;;;;5044935;28;20049;-71
2022/09/12 11:10:12;;;;;;;25.05;17.60;;;21.50;97.70;;;;;;5053966;28;20029;-71
2022/09/12 11:13:02;;;;;;;25.42;18.35;;;21.50;97.70;;;;;;5054500;28;20115;-70
2022/09/12 11:15:28;;;;;;;25.45;17.33;;;21.60;96.70;;;;;;5054358;28;20040;-70
2022/09/12 11:18:17;;;;;;;27.15;17.75;;;21.60;97.10;;;;;;5052518;28;20453;-70
2022/09/12 11:21:18;;;;;;;29.13;19.13;;;21.70;96.20;;;;;;5053560;28;20044;-71
2022/09/12 11:24:07;;;;;;;26.58;15.60;;;21.70;96.30;;;;;;5052457;28;20060;-70
2022/09/12 11:26:49;;;;;;;25.67;16.45;;;21.70;95.80;;;;;;5054072;28;20084;-70
2022/09/12 11:29:25;;;;;;;23.65;15.52;;;21.70;96.40;;;;;;5053390;28;20529;-70
2022/09/12 11:32:10;;;;;;;24.10;14.52;;;21.80;95.70;;;;;;5052653;28;20044;-70
2022/09/12 11:34:49;;;;;;;19.38;14.55;;;21.90;95.30;;;;;;5052695;28;20049;-70
2022/09/12 11:37:48;;;;;;;24.10;16.02;;;22.00;95.10;;;;;;5053693;28;20033;-71
2022/09/12 11:40:26;;;;;;;21.40;14.07;;;21.90;95.30;;;;;;5053782;28;20044;-70
2022/09/12 11:42:58;;;;;;;21.92;14.05;;;21.90;94.70;;;;;;5053834;28;20418;-70
2022/09/12 11:45:50;;;;;;;18.00;13.48;;;22.00;95.50;;;;;;5052652;28;20134;-70
2022/09/12 11:48:37;;;;;;;26.35;15.07;;;22.00;94.60;;;;;;5053275;28;20090;-70
2022/09/12 11:51:06;;;;;;;20.70;14.57;;;22.00;94.30;;;;;;5053285;28;20122;-70
2022/09/12 11:53:37;;;;;;;21.98;13.68;;;22.10;93.90;;;;;;5053478;28;20103;-71
2022/09/12 11:56:18;;;;;;;18.83;14.20;;;22.10;94.00;;;;;;5052192;28;20117;-70
2022/09/12 11:58:50;;;;;;;15.52;11.13;;;22.20;93.40;;;;;;5051991;28;20047;-71
2022/09/12 12:01:32;;;;;;;15.95;10.68;;;22.20;94.00;;;;;;5051853;28;20048;-70
2022/09/12 12:04:02;;;;;;;15.50;11.27;;;22.10;92.60;;;;;;5053345;28;20040;-71
2022/09/12 12:06:31;;;;;;;14.88;9.98;;;22.00;93.00;;;;;;5053079;28;20120;-71
2022/09/12 12:08:57;;;;;;;15.05;10.18;;;22.00;93.60;;;;;;5053290;28;20509;-71
2022/09/12 12:11:35;;;;;;;15.45;10.15;;;22.00;93.70;;;;;;5051538;28;20037;-70
2022/09/12 12:14:02;;;;;;;13.40;9.68;;;22.10;93.00;;;;;;5053254;28;20048;-70
2022/09/12 12:16:31;;;;;;;14.30;9.45;;;22.20;93.00;;;;;;5051784;28;20041;-71
2022/09/12 12:19:02;;;;;;;14.13;10.00;;;22.20;93.00;;;;;;5052709;28;20048;-70
2022/09/12 12:21:33;;;;;;;17.50;11.10;;;22.20;92.20;;;;;;5052863;28;20094;-70
2022/09/12 12:24:08;;;;;;;14.63;9.93;;;22.20;92.50;;;;;;5052833;28;20047;-70
2022/09/12 12:26:39;;;;;;;15.40;10.73;;;22.30;92.80;;;;;;5052823;28;20079;-70
2022/09/12 12:29:09;;;;;;;16.75;10.35;;;22.30;92.20;;;;;;5052454;28;20087;-71
2022/09/12 12:32:16;;;;;;;10.90;9.27;;;22.50;92.00;;;;;;5052363;28;20041;-70
2022/09/12 12:34:44;;;;;;;11.90;8.75;;;22.50;91.50;;;;;;5048685;28;20051;-70
2022/09/12 12:37:19;;;;;;;10.13;8.25;;;22.50;91.00;;;;;;5052724;28;20132;-70
2022/09/12 12:39:44;;;;;;;15.68;9.90;;;22.60;90.50;;;;;;5052149;28;20106;-71
2022/09/12 12:42:46;;;;;;;13.93;10.52;;;22.60;91.50;;;;;;5052681;28;20056;-73
2022/09/12 12:45:26;;;;;;;15.02;10.82;;;22.60;90.00;;;;;;5052387;28;20049;-70
2022/09/12 12:47:58;;;;;;;19.55;11.82;;;22.70;90.10;;;;;;5051082;28;20047;-70
2022/09/12 12:50:30;;;;;;;14.48;10.82;;;22.70;90.60;;;;;;5050881;28;20049;-70
2022/09/12 12:53:01;;;;;;;18.55;9.18;;;22.70;89.60;;;;;;5052919;28;20128;-70
2022/09/12 12:55:34;;;;;;;12.13;9.75;;;22.70;90.20;;;;;;5053446;28;20047;-70
2022/09/12 12:58:01;;;;;;;13.70;9.90;;;22.80;89.60;;;;;;5051195;28;20073;-69
2022/09/12 13:00:35;;;;;;;15.50;10.05;;;22.80;88.90;;;;;;5052314;28;20037;-70